createdAt,value
2018-12-06T00:00:58.071Z,0.00
2018-12-06T00:01:58.098Z,0.00
2018-12-06T00:02:58.059Z,0.00
2018-12-06T00:03:58.031Z,0.00
2018-12-06T00:04:58.055Z,0.00
2018-12-06T00:05:58.093Z,0.00
2018-12-06T00:06:57.982Z,0.00
2018-12-06T00:07:58.007Z,0.00
2018-12-06T00:09:00.875Z,0.00
2018-12-06T00:09:58.776Z,0.00
2018-12-06T00:10:57.945Z,0.00
2018-12-06T00:11:58.909Z,0.00
2018-12-06T00:12:58.018Z,0.00
2018-12-06T00:13:59.812Z,0.00
2018-12-06T00:14:59.746Z,0.00
2018-12-06T00:15:57.947Z,0.00
2018-12-06T00:16:57.940Z,0.00
2018-12-06T00:17:57.980Z,0.00
2018-12-06T00:18:57.933Z,0.00
2018-12-06T00:19:57.842Z,0.00
2018-12-06T00:27:56.178Z,0.00
2018-12-06T01:01:53.396Z,0.00
2018-12-06T01:02:52.095Z,0.00
2018-12-06T01:03:51.552Z,0.00
2018-12-06T01:04:51.513Z,0.00
2018-12-06T01:05:51.583Z,0.00
2018-12-06T01:06:51.516Z,0.00
2018-12-06T01:07:51.442Z,0.00
2018-12-06T01:08:55.410Z,0.00
2018-12-06T01:09:51.455Z,0.00
2018-12-06T01:10:51.406Z,0.00
2018-12-06T01:11:51.382Z,0.00
2018-12-06T01:12:51.427Z,0.00
2018-12-06T01:25:51.236Z,0.00
2018-12-06T01:26:51.554Z,0.00
2018-12-06T01:27:50.882Z,0.00
2018-12-06T01:28:50.444Z,0.00
2018-12-06T01:29:50.377Z,0.00
2018-12-06T01:30:50.434Z,0.00
2018-12-06T01:31:50.319Z,0.00
2018-12-06T01:32:50.278Z,0.00
2018-12-06T01:33:50.233Z,0.00
2018-12-06T01:34:50.233Z,0.00
2018-12-06T01:35:50.207Z,0.00
2018-12-06T01:36:50.260Z,0.00
2018-12-06T01:37:50.247Z,0.00
2018-12-06T01:38:50.188Z,0.00
2018-12-06T01:39:50.226Z,0.00
2018-12-06T01:40:50.159Z,0.00
2018-12-06T01:41:51.132Z,0.00
2018-12-06T01:42:50.146Z,0.00
2018-12-06T01:43:50.125Z,0.00
2018-12-06T01:44:50.111Z,0.00
2018-12-06T01:45:50.096Z,0.00
2018-12-06T01:46:50.082Z,0.00
2018-12-06T01:47:50.187Z,0.00
2018-12-06T01:48:50.063Z,0.00
2018-12-06T01:49:50.046Z,0.00
2018-12-06T01:50:50.055Z,0.00
2018-12-06T01:51:50.035Z,0.00
2018-12-06T01:52:50.020Z,0.00
2018-12-06T01:53:50.042Z,0.00
2018-12-06T01:54:49.991Z,0.00
2018-12-06T01:55:50.010Z,0.00
2018-12-06T01:56:49.981Z,0.00
2018-12-06T01:57:49.991Z,0.00
2018-12-06T01:58:49.972Z,0.00
2018-12-06T01:59:49.941Z,0.00
2018-12-06T02:00:49.941Z,0.00
2018-12-06T02:01:49.932Z,0.00
2018-12-06T02:02:49.915Z,0.00
2018-12-06T02:03:50.007Z,0.00
2018-12-06T02:04:49.893Z,0.00
2018-12-06T02:05:49.889Z,0.00
2018-12-06T02:06:49.914Z,0.00
2018-12-06T02:07:49.856Z,0.00
2018-12-06T02:08:49.882Z,0.00
2018-12-06T02:09:49.859Z,0.00
2018-12-06T02:10:49.849Z,0.00
2018-12-06T02:11:49.866Z,0.00
2018-12-06T02:12:49.801Z,0.00
2018-12-06T02:13:49.845Z,0.00
2018-12-06T02:14:49.800Z,0.00
2018-12-06T02:15:49.772Z,0.00
2018-12-06T02:16:49.778Z,0.00
2018-12-06T02:17:49.749Z,0.00
2018-12-06T02:18:49.741Z,0.00
2018-12-06T02:19:49.739Z,0.00
2018-12-06T02:20:49.716Z,0.00
2018-12-06T02:21:49.715Z,0.00
2018-12-06T02:22:49.735Z,0.00
2018-12-06T02:23:49.720Z,0.00
2018-12-06T02:24:49.716Z,0.00
2018-12-06T02:25:49.667Z,0.00
2018-12-06T02:26:49.647Z,0.00
2018-12-06T02:27:49.633Z,0.00
2018-12-06T02:28:49.631Z,0.00
2018-12-06T02:29:49.624Z,0.00
2018-12-06T02:30:49.625Z,0.00
2018-12-06T02:31:49.605Z,0.00
2018-12-06T02:32:49.579Z,0.00
2018-12-06T02:33:49.576Z,0.00
2018-12-06T02:34:49.557Z,0.00
2018-12-06T02:35:49.581Z,0.00
2018-12-06T02:36:49.556Z,0.00
2018-12-06T02:37:49.552Z,0.00
2018-12-06T02:38:49.569Z,0.00
2018-12-06T02:39:49.509Z,0.00
2018-12-06T02:40:49.501Z,0.00
2018-12-06T02:41:49.554Z,0.00
2018-12-06T02:42:49.471Z,0.00
2018-12-06T02:43:49.489Z,0.00
2018-12-06T02:44:49.453Z,0.00
2018-12-06T02:45:49.461Z,0.00
2018-12-06T02:46:49.433Z,0.00
2018-12-06T02:47:49.543Z,0.00
2018-12-06T02:48:49.415Z,0.00
2018-12-06T02:49:49.393Z,0.00
2018-12-06T02:50:49.395Z,0.00
2018-12-06T02:51:49.432Z,0.00
2018-12-06T02:52:49.359Z,0.00
2018-12-06T02:53:49.343Z,0.00
2018-12-06T02:54:49.382Z,0.00
2018-12-06T02:55:49.334Z,0.00
2018-12-06T02:56:49.319Z,0.00
2018-12-06T02:57:49.349Z,0.00
2018-12-06T02:58:49.295Z,0.00
2018-12-06T02:59:49.297Z,0.00
2018-12-06T03:00:49.288Z,0.00
2018-12-06T03:01:49.259Z,0.00
2018-12-06T03:02:49.280Z,0.00
2018-12-06T03:03:49.270Z,0.00
2018-12-06T03:04:49.227Z,0.00
2018-12-06T03:05:49.249Z,0.00
2018-12-06T03:06:49.211Z,0.00
2018-12-06T03:07:49.292Z,0.00
2018-12-06T03:08:49.204Z,0.00
2018-12-06T03:09:49.168Z,0.00
2018-12-06T03:10:49.165Z,0.00
2018-12-06T03:11:49.148Z,0.00
2018-12-06T03:12:49.142Z,0.00
2018-12-06T03:13:49.134Z,0.00
2018-12-06T03:14:49.147Z,0.00
2018-12-06T03:15:49.104Z,0.00
2018-12-06T03:16:49.119Z,0.00
2018-12-06T03:17:49.095Z,0.00
2018-12-06T03:18:49.076Z,0.00
2018-12-06T03:19:49.075Z,0.00
2018-12-06T03:20:49.053Z,0.00
2018-12-06T03:21:49.088Z,0.00
2018-12-06T03:22:49.035Z,0.00
2018-12-06T03:23:49.020Z,0.00
2018-12-06T03:24:49.041Z,0.00
2018-12-06T03:25:49.004Z,0.00
2018-12-06T03:26:49.011Z,0.00
2018-12-06T03:27:48.967Z,0.00
2018-12-06T03:28:49.047Z,0.00
2018-12-06T03:29:48.951Z,0.00
2018-12-06T03:30:48.993Z,0.00
2018-12-06T03:31:48.989Z,0.00
2018-12-06T03:32:48.923Z,0.00
2018-12-06T03:33:48.917Z,0.00
2018-12-06T03:34:48.898Z,0.00
2018-12-06T03:35:48.882Z,0.00
2018-12-06T03:36:48.916Z,0.00
2018-12-06T03:37:48.874Z,0.00
2018-12-06T03:38:48.910Z,0.00
2018-12-06T03:39:51.623Z,0.00
2018-12-06T03:40:48.867Z,0.00
2018-12-06T03:41:48.831Z,0.00
2018-12-06T03:42:48.870Z,0.00
2018-12-06T03:43:48.810Z,0.00
2018-12-06T03:44:48.795Z,0.00
2018-12-06T03:45:48.783Z,0.00
2018-12-06T03:46:48.789Z,0.00
2018-12-06T03:47:48.768Z,0.00
2018-12-06T03:48:48.748Z,0.00
2018-12-06T03:49:48.738Z,0.00
2018-12-06T03:50:48.741Z,0.00
2018-12-06T03:51:48.764Z,0.00
2018-12-06T03:52:48.716Z,0.00
2018-12-06T03:53:48.723Z,0.00
2018-12-06T03:54:49.615Z,0.00
2018-12-06T03:55:48.673Z,0.00
2018-12-06T03:56:48.682Z,0.00
2018-12-06T03:57:48.670Z,0.00
2018-12-06T03:58:48.663Z,0.00
2018-12-06T03:59:48.637Z,0.00
2018-12-06T04:00:48.615Z,0.00
2018-12-06T04:01:48.601Z,0.00
2018-12-06T04:02:48.640Z,0.00
2018-12-06T04:03:48.592Z,0.00
2018-12-06T04:04:48.592Z,0.00
2018-12-06T04:05:48.572Z,0.00
2018-12-06T04:06:48.554Z,0.00
2018-12-06T04:07:48.577Z,0.00
2018-12-06T04:08:48.552Z,0.00
2018-12-06T04:09:48.525Z,0.00
2018-12-06T04:10:48.525Z,0.00
2018-12-06T04:11:48.499Z,0.00
2018-12-06T04:12:48.493Z,0.00
2018-12-06T04:13:48.472Z,0.00
2018-12-06T04:14:48.486Z,0.00
2018-12-06T04:15:48.458Z,0.00
2018-12-06T04:16:48.437Z,0.00
2018-12-06T04:17:48.454Z,0.00
2018-12-06T04:18:48.452Z,0.00
2018-12-06T04:19:48.403Z,0.00
2018-12-06T04:20:48.416Z,0.00
2018-12-06T04:21:48.390Z,0.00
2018-12-06T04:22:48.376Z,0.00
2018-12-06T04:23:48.415Z,0.00
2018-12-06T04:24:48.474Z,0.00
2018-12-06T04:25:48.344Z,0.00
2018-12-06T04:26:48.334Z,0.00
2018-12-06T04:27:48.379Z,0.00
2018-12-06T04:28:48.309Z,0.00
2018-12-06T04:29:48.322Z,0.00
2018-12-06T04:30:48.288Z,0.00
2018-12-06T04:31:48.295Z,0.00
2018-12-06T04:32:48.280Z,0.00
2018-12-06T04:33:48.254Z,0.00
2018-12-06T04:34:48.269Z,0.00
2018-12-06T04:35:48.256Z,0.00
2018-12-06T04:36:48.226Z,0.00
2018-12-06T04:37:48.214Z,0.00
2018-12-06T04:38:48.249Z,0.00
2018-12-06T04:39:48.208Z,0.00
2018-12-06T04:40:48.206Z,0.00
2018-12-06T04:41:48.169Z,0.00
2018-12-06T04:42:48.163Z,0.00
2018-12-06T04:43:48.149Z,0.00
2018-12-06T04:44:48.165Z,0.00
2018-12-06T04:45:48.127Z,0.00
2018-12-06T04:46:48.127Z,0.00
2018-12-06T04:47:48.117Z,0.00
2018-12-06T04:48:48.087Z,0.00
2018-12-06T04:49:48.078Z,0.00
2018-12-06T04:50:48.299Z,0.00
2018-12-06T04:51:48.074Z,0.00
2018-12-06T04:52:48.050Z,0.00
2018-12-06T04:53:48.049Z,0.00
2018-12-06T04:54:48.023Z,0.00
2018-12-06T04:55:48.035Z,0.00
2018-12-06T04:56:48.073Z,0.00
2018-12-06T04:57:47.999Z,0.00
2018-12-06T04:58:47.980Z,0.00
2018-12-06T04:59:47.987Z,0.00
2018-12-06T05:00:47.963Z,0.00
2018-12-06T05:01:47.950Z,0.00
2018-12-06T05:02:47.958Z,0.00
2018-12-06T05:03:47.932Z,0.00
2018-12-06T05:04:47.929Z,0.00
2018-12-06T05:05:47.899Z,0.00
2018-12-06T05:06:47.888Z,0.00
2018-12-06T05:07:47.910Z,0.00
2018-12-06T05:08:47.873Z,0.00
2018-12-06T05:09:47.857Z,0.00
2018-12-06T05:10:47.850Z,0.00
2018-12-06T05:11:47.840Z,0.00
2018-12-06T05:12:47.844Z,0.00
2018-12-06T05:13:47.815Z,0.00
2018-12-06T05:14:47.816Z,0.00
2018-12-06T05:15:47.813Z,0.00
2018-12-06T05:16:47.791Z,0.00
2018-12-06T05:17:47.776Z,0.00
2018-12-06T05:18:47.763Z,0.00
2018-12-06T05:19:47.782Z,0.00
2018-12-06T05:20:47.751Z,0.00
2018-12-06T05:21:47.817Z,0.00
2018-12-06T05:22:47.722Z,0.00
2018-12-06T05:23:47.708Z,0.00
2018-12-06T05:24:47.697Z,0.00
2018-12-06T05:25:47.746Z,0.00
2018-12-06T05:26:47.681Z,0.00
2018-12-06T05:27:47.666Z,0.00
2018-12-06T05:28:47.675Z,0.00
2018-12-06T05:29:47.689Z,0.00
2018-12-06T05:30:47.650Z,0.00
2018-12-06T05:31:47.652Z,0.00
2018-12-06T05:32:47.624Z,0.00
2018-12-06T05:33:47.605Z,0.00
2018-12-06T05:34:47.597Z,0.00
2018-12-06T05:35:47.590Z,0.00
2018-12-06T05:36:47.574Z,0.00
2018-12-06T05:37:47.624Z,0.00
2018-12-06T05:38:47.556Z,0.00
2018-12-06T05:39:47.535Z,0.00
2018-12-06T05:40:47.526Z,0.00
2018-12-06T05:41:47.557Z,0.00
2018-12-06T05:42:47.497Z,0.00
2018-12-06T05:43:47.488Z,0.00
2018-12-06T05:44:47.484Z,0.00
2018-12-06T05:45:47.477Z,0.00
2018-12-06T05:46:47.495Z,0.00
2018-12-06T05:47:47.454Z,0.00
2018-12-06T05:48:47.441Z,0.00
2018-12-06T05:49:47.471Z,0.00
2018-12-06T05:50:47.420Z,0.00
2018-12-06T05:51:47.408Z,0.00
2018-12-06T05:52:47.460Z,0.00
2018-12-06T05:53:47.393Z,0.00
2018-12-06T05:54:47.431Z,0.00
2018-12-06T05:55:47.470Z,0.00
2018-12-06T05:56:48.122Z,0.00
2018-12-06T05:57:48.312Z,0.00
2018-12-06T05:58:47.331Z,0.00
2018-12-06T05:59:47.316Z,0.00
2018-12-06T06:00:47.384Z,0.00
2018-12-06T06:01:47.321Z,0.00
2018-12-06T06:02:47.302Z,0.00
2018-12-06T06:03:47.302Z,0.00
2018-12-06T06:04:47.263Z,0.00
2018-12-06T06:05:47.466Z,0.00
2018-12-06T06:06:47.583Z,0.00
2018-12-06T06:07:47.348Z,0.00
2018-12-06T06:08:47.230Z,0.00
2018-12-06T06:09:47.211Z,0.00
2018-12-06T06:10:47.189Z,0.00
2018-12-06T06:11:47.371Z,0.00
2018-12-06T06:12:47.306Z,0.00
2018-12-06T06:13:47.185Z,0.00
2018-12-06T06:14:47.165Z,0.00
2018-12-06T06:15:47.202Z,0.00
2018-12-06T06:16:47.227Z,0.00
2018-12-06T06:19:23.199Z,0.00
2018-12-06T06:20:22.782Z,0.00
2018-12-06T06:21:22.871Z,0.00
2018-12-06T06:22:22.754Z,0.00
2018-12-06T06:23:22.754Z,0.00
2018-12-06T06:24:22.713Z,0.00
2018-12-06T06:25:22.635Z,0.00
2018-12-06T06:31:25.583Z,0.00
2018-12-06T06:32:25.193Z,0.00
2018-12-06T06:33:25.127Z,0.00
2018-12-06T06:34:25.075Z,0.00
2018-12-06T06:35:25.013Z,0.00
2018-12-06T06:36:24.987Z,0.00
2018-12-06T06:37:25.081Z,0.00
2018-12-06T06:38:24.995Z,0.00
2018-12-06T06:39:25.147Z,0.00
2018-12-06T06:40:25.050Z,0.00
2018-12-06T06:41:25.103Z,4.00
2018-12-06T06:43:45.044Z,4.00
2018-12-06T06:44:46.795Z,0.00
2018-12-06T06:47:35.030Z,8.00
2018-12-06T06:48:34.770Z,4.00
2018-12-06T06:49:34.691Z,8.00
2018-12-06T06:51:56.410Z,12.00
2018-12-06T06:52:55.896Z,12.00
2018-12-06T06:53:55.919Z,12.00
2018-12-06T06:54:55.781Z,20.00
2018-12-06T06:55:55.767Z,16.00
2018-12-06T06:56:55.855Z,20.00
2018-12-06T06:57:55.744Z,16.00
2018-12-06T06:58:55.726Z,20.00
2018-12-06T06:59:55.737Z,24.00
2018-12-06T07:00:55.724Z,28.00
2018-12-06T07:01:55.690Z,32.00
2018-12-06T07:02:55.679Z,32.00
2018-12-06T07:03:55.672Z,32.00
2018-12-06T07:04:56.480Z,36.00
2018-12-06T07:05:55.673Z,40.00
2018-12-06T07:06:55.643Z,48.00
2018-12-06T07:07:55.629Z,56.00
2018-12-06T07:08:55.611Z,64.00
2018-12-06T07:09:55.603Z,72.00
2018-12-06T07:10:55.608Z,84.00
2018-12-06T07:11:55.585Z,104.00
2018-12-06T07:12:55.574Z,132.00
2018-12-06T07:13:55.597Z,164.00
2018-12-06T07:14:55.554Z,180.00
2018-12-06T07:15:55.565Z,192.00
2018-12-06T07:16:55.532Z,212.00
2018-12-06T07:17:55.519Z,224.00
2018-12-06T07:18:55.508Z,252.00
2018-12-06T07:19:55.504Z,288.00
2018-12-06T07:20:55.478Z,332.00
2018-12-06T07:21:55.578Z,376.00
2018-12-06T07:22:55.470Z,396.00
2018-12-06T07:23:55.465Z,400.00
2018-12-06T07:24:55.487Z,412.00
2018-12-06T07:25:55.441Z,448.00
2018-12-06T07:26:55.426Z,444.00
2018-12-06T07:27:55.438Z,452.00
2018-12-06T07:28:55.402Z,460.00
2018-12-06T07:29:55.381Z,468.00
2018-12-06T07:30:55.373Z,436.00
2018-12-06T07:31:55.412Z,416.00
2018-12-06T07:32:55.365Z,420.00
2018-12-06T07:33:55.340Z,424.00
2018-12-06T07:34:55.327Z,428.00
2018-12-06T07:35:55.329Z,448.00
2018-12-06T07:36:55.304Z,452.00
2018-12-06T07:37:55.308Z,512.00
2018-12-06T07:38:55.293Z,568.00
2018-12-06T07:39:55.272Z,592.00
2018-12-06T07:40:55.264Z,584.00
2018-12-06T07:41:55.298Z,568.00
2018-12-06T07:42:55.239Z,556.00
2018-12-06T07:43:55.229Z,556.00
2018-12-06T07:44:55.227Z,596.00
2018-12-06T07:45:55.212Z,652.00
2018-12-06T07:46:55.194Z,680.00
2018-12-06T07:47:55.197Z,684.00
2018-12-06T07:48:55.189Z,684.00
2018-12-06T07:49:55.164Z,636.00
2018-12-06T07:50:55.428Z,564.00
2018-12-06T07:51:55.140Z,540.00
2018-12-06T07:52:55.200Z,556.00
2018-12-06T07:53:55.158Z,628.00
2018-12-06T07:54:55.126Z,668.00
2018-12-06T07:55:55.115Z,664.00
2018-12-06T07:56:55.113Z,660.00
2018-12-06T07:57:55.089Z,720.00
2018-12-06T07:58:55.079Z,812.00
2018-12-06T07:59:55.073Z,884.00
2018-12-06T08:00:55.041Z,1004.00
2018-12-06T08:01:55.035Z,964.00
2018-12-06T08:02:55.981Z,836.00
2018-12-06T08:03:55.028Z,808.00
2018-12-06T08:04:55.002Z,800.00
2018-12-06T08:05:54.986Z,800.00
2018-12-06T08:06:54.980Z,840.00
2018-12-06T08:07:54.966Z,908.00
2018-12-06T08:08:54.978Z,916.00
2018-12-06T08:09:54.944Z,948.00
2018-12-06T08:10:55.028Z,976.00
2018-12-06T08:11:54.941Z,920.00
2018-12-06T08:12:54.913Z,860.00
2018-12-06T08:13:54.901Z,760.00
2018-12-06T08:14:54.906Z,712.00
2018-12-06T08:15:54.883Z,772.00
2018-12-06T08:16:54.879Z,784.00
2018-12-06T08:17:54.971Z,816.00
2018-12-06T08:18:54.846Z,852.00
2018-12-06T08:19:54.863Z,804.00
2018-12-06T08:20:54.830Z,844.00
2018-12-06T08:21:54.813Z,920.00
2018-12-06T08:22:54.810Z,1064.00
2018-12-06T08:23:54.804Z,1156.00
2018-12-06T08:24:54.782Z,1256.00
2018-12-06T08:25:54.812Z,1436.00
2018-12-06T08:26:54.767Z,1560.00
2018-12-06T08:27:54.749Z,1776.00
2018-12-06T08:28:54.744Z,2160.00
2018-12-06T08:29:54.759Z,2404.00
2018-12-06T08:30:54.714Z,2528.00
2018-12-06T08:31:54.721Z,2688.00
2018-12-06T08:32:54.713Z,2812.00
2018-12-06T08:33:54.685Z,2940.00
2018-12-06T08:34:54.675Z,3088.00
2018-12-06T08:35:54.674Z,3224.00
2018-12-06T08:36:54.698Z,3380.00
2018-12-06T08:37:54.721Z,3700.00
2018-12-06T08:38:54.628Z,3744.00
2018-12-06T08:39:54.618Z,3420.00
2018-12-06T08:40:54.605Z,3488.00
2018-12-06T08:41:54.623Z,3596.00
2018-12-06T08:42:54.582Z,3516.00
2018-12-06T08:43:54.574Z,3440.00
2018-12-06T08:44:54.560Z,3480.00
2018-12-06T08:45:54.555Z,3632.00
2018-12-06T08:46:54.557Z,3624.00
2018-12-06T08:47:54.561Z,3608.00
2018-12-06T08:48:54.534Z,3612.00
2018-12-06T08:49:54.510Z,3328.00
2018-12-06T08:50:54.737Z,3236.00
2018-12-06T08:51:54.501Z,3112.00
2018-12-06T08:52:54.495Z,3020.00
2018-12-06T08:53:54.458Z,2792.00
2018-12-06T08:54:54.460Z,2636.00
2018-12-06T08:55:54.445Z,2620.00
2018-12-06T08:56:54.436Z,2628.00
2018-12-06T08:57:54.438Z,2488.00
2018-12-06T08:58:54.450Z,2516.00
2018-12-06T08:59:54.400Z,2708.00
2018-12-06T09:00:54.387Z,2952.00
2018-12-06T09:01:54.377Z,3076.00
2018-12-06T09:02:54.366Z,3296.00
2018-12-06T09:03:54.351Z,3336.00
2018-12-06T09:04:54.373Z,3468.00
2018-12-06T09:05:54.331Z,3456.00
2018-12-06T09:08:34.958Z,3440.00
2018-12-06T09:09:34.554Z,3428.00
2018-12-06T09:10:34.404Z,3536.00
2018-12-06T09:11:34.434Z,3772.00
2018-12-06T09:12:34.387Z,4076.00
2018-12-06T09:13:34.384Z,4328.00
2018-12-06T09:14:34.346Z,4044.00
2018-12-06T09:15:34.338Z,3780.00
2018-12-06T09:16:34.332Z,3424.00
2018-12-06T09:17:34.359Z,3240.00
2018-12-06T09:18:34.318Z,3076.00
2018-12-06T09:19:34.316Z,2976.00
2018-12-06T09:20:34.302Z,2808.00
2018-12-06T09:21:34.275Z,2760.00
2018-12-06T09:22:34.253Z,2776.00
2018-12-06T09:23:34.280Z,2760.00
2018-12-06T09:24:34.267Z,2644.00
2018-12-06T09:25:34.225Z,2524.00
2018-12-06T09:26:34.208Z,2392.00
2018-12-06T09:27:34.214Z,2408.00
2018-12-06T09:28:34.190Z,2316.00
2018-12-06T09:29:34.230Z,2168.00
2018-12-06T09:30:34.171Z,2028.00
2018-12-06T09:31:34.161Z,1696.00
2018-12-06T09:32:34.145Z,1428.00
2018-12-06T09:33:34.133Z,1284.00
2018-12-06T09:34:34.127Z,1204.00
2018-12-06T09:35:34.125Z,1316.00
2018-12-06T09:36:34.113Z,1448.00
2018-12-06T09:37:34.096Z,1616.00
2018-12-06T09:38:34.084Z,1892.00
2018-12-06T09:39:34.065Z,2296.00
2018-12-06T09:40:34.099Z,2572.00
2018-12-06T09:41:34.045Z,2672.00
2018-12-06T09:42:34.728Z,2700.00
2018-12-06T09:43:34.030Z,2840.00
2018-12-06T09:44:34.011Z,2960.00
2018-12-06T09:45:34.001Z,3176.00
2018-12-06T09:46:34.006Z,3688.00
2018-12-06T09:47:33.975Z,4300.00
2018-12-06T09:48:33.980Z,4440.00
2018-12-06T09:49:33.958Z,4756.00
2018-12-06T09:50:33.942Z,4552.00
2018-12-06T09:51:33.944Z,4860.00
2018-12-06T09:52:33.925Z,5264.00
2018-12-06T09:53:33.919Z,5748.00
2018-12-06T09:54:33.897Z,5856.00
2018-12-06T09:55:33.906Z,5916.00
2018-12-06T09:56:33.915Z,5600.00
2018-12-06T09:57:33.869Z,5408.00
2018-12-06T09:58:33.957Z,5396.00
2018-12-06T09:59:33.840Z,5408.00
2018-12-06T10:00:33.832Z,5656.00
2018-12-06T10:01:33.856Z,5520.00
2018-12-06T10:02:33.830Z,5520.00
2018-12-06T10:03:33.796Z,5604.00
2018-12-06T10:04:33.785Z,6128.00
2018-12-06T10:05:33.780Z,6160.00
2018-12-06T10:06:33.771Z,5876.00
2018-12-06T10:07:33.765Z,5856.00
2018-12-06T10:08:33.797Z,5904.00
2018-12-06T10:09:33.738Z,6056.00
2018-12-06T10:10:33.723Z,6240.00
2018-12-06T10:11:33.713Z,6016.00
2018-12-06T10:12:33.707Z,6204.00
2018-12-06T10:13:33.690Z,6400.00
2018-12-06T10:14:33.701Z,6644.00
2018-12-06T10:15:33.676Z,7000.00
2018-12-06T10:16:33.654Z,7236.00
2018-12-06T10:17:33.662Z,7508.00
2018-12-06T10:18:33.658Z,7288.00
2018-12-06T10:19:33.625Z,7292.00
2018-12-06T10:20:33.611Z,6860.00
2018-12-06T10:21:33.612Z,6140.00
2018-12-06T10:22:33.600Z,5792.00
2018-12-06T10:23:33.586Z,5520.00
2018-12-06T10:24:33.606Z,5444.00
2018-12-06T10:25:33.557Z,5064.00
2018-12-06T10:26:33.546Z,4916.00
2018-12-06T10:27:33.546Z,4820.00
2018-12-06T10:28:33.523Z,4304.00
2018-12-06T10:29:33.554Z,4180.00
2018-12-06T10:30:33.521Z,4016.00
2018-12-06T10:31:33.484Z,4140.00
2018-12-06T10:32:33.474Z,4456.00
2018-12-06T10:33:33.468Z,4104.00
2018-12-06T10:34:33.460Z,4140.00
2018-12-06T10:35:33.440Z,4460.00
2018-12-06T10:36:33.447Z,5036.00
2018-12-06T10:37:33.418Z,5040.00
2018-12-06T10:38:33.410Z,4816.00
2018-12-06T10:39:33.398Z,4712.00
2018-12-06T10:40:33.387Z,4992.00
2018-12-06T10:41:33.386Z,4636.00
2018-12-06T10:42:33.367Z,4372.00
2018-12-06T10:43:33.359Z,4444.00
2018-12-06T10:44:33.363Z,4520.00
2018-12-06T10:45:33.408Z,4404.00
2018-12-06T10:46:33.315Z,4328.00
2018-12-06T10:47:33.307Z,4272.00
2018-12-06T10:48:33.301Z,4252.00
2018-12-06T10:49:33.354Z,4096.00
2018-12-06T10:50:33.283Z,4264.00
2018-12-06T10:51:33.262Z,4296.00
2018-12-06T10:52:33.251Z,4012.00
2018-12-06T10:53:33.251Z,4192.00
2018-12-06T10:54:33.234Z,3904.00
2018-12-06T10:55:33.256Z,3464.00
2018-12-06T10:56:33.223Z,3400.00
2018-12-06T10:57:33.202Z,3180.00
2018-12-06T10:58:33.185Z,3320.00
2018-12-06T10:59:33.172Z,3268.00
2018-12-06T11:00:33.207Z,3144.00
2018-12-06T11:01:33.162Z,2948.00
2018-12-06T11:02:33.144Z,2968.00
2018-12-06T11:03:33.137Z,2908.00
2018-12-06T11:04:33.115Z,2964.00
2018-12-06T11:05:33.106Z,2984.00
2018-12-06T11:06:33.113Z,2796.00
2018-12-06T11:07:33.101Z,2760.00
2018-12-06T11:08:33.074Z,2936.00
2018-12-06T11:09:33.074Z,3040.00
2018-12-06T11:10:33.121Z,2728.00
2018-12-06T11:11:33.063Z,2960.00
2018-12-06T11:12:33.029Z,3152.00
2018-12-06T11:13:33.034Z,3304.00
2018-12-06T11:14:33.016Z,3308.00
2018-12-06T11:15:32.998Z,3788.00
2018-12-06T11:16:33.000Z,3720.00
2018-12-06T11:17:32.988Z,3816.00
2018-12-06T11:18:32.967Z,4264.00
2018-12-06T11:19:32.967Z,4716.00
2018-12-06T11:20:32.942Z,5468.00
2018-12-06T11:21:32.930Z,5168.00
2018-12-06T11:22:32.936Z,5064.00
2018-12-06T11:23:32.906Z,4768.00
2018-12-06T11:24:32.897Z,4848.00
2018-12-06T11:25:32.890Z,4612.00
2018-12-06T11:26:32.883Z,4836.00
2018-12-06T11:27:32.913Z,4324.00
2018-12-06T11:28:32.873Z,4208.00
2018-12-06T11:29:32.842Z,4016.00
2018-12-06T11:30:32.841Z,3940.00
2018-12-06T11:31:32.826Z,3772.00
2018-12-06T11:32:32.807Z,3856.00
2018-12-06T11:33:32.841Z,3784.00
2018-12-06T11:34:32.805Z,4036.00
2018-12-06T11:35:32.783Z,3732.00
2018-12-06T11:36:32.776Z,3352.00
2018-12-06T11:37:32.756Z,3436.00
2018-12-06T11:38:32.753Z,3484.00
2018-12-06T11:39:32.761Z,2808.00
2018-12-06T11:40:32.739Z,2552.00
2018-12-06T11:41:32.715Z,2444.00
2018-12-06T11:42:32.722Z,2376.00
2018-12-06T11:43:32.690Z,2384.00
2018-12-06T11:44:32.672Z,2312.00
2018-12-06T11:45:32.674Z,2440.00
2018-12-06T11:46:32.656Z,2444.00
2018-12-06T11:47:32.653Z,2828.00
2018-12-06T11:48:32.674Z,2808.00
2018-12-06T11:49:32.621Z,3008.00
2018-12-06T11:50:32.606Z,3580.00
2018-12-06T11:51:32.599Z,3288.00
2018-12-06T11:52:32.587Z,3208.00
2018-12-06T11:53:32.595Z,3532.00
2018-12-06T11:54:32.586Z,4164.00
2018-12-06T11:55:32.586Z,3944.00
2018-12-06T11:56:32.554Z,4224.00
2018-12-06T11:57:32.557Z,4016.00
2018-12-06T11:58:32.526Z,4188.00
2018-12-06T11:59:32.533Z,4200.00
2018-12-06T12:00:32.497Z,4200.00
2018-12-06T12:01:32.486Z,3332.00
2018-12-06T12:02:32.476Z,3264.00
2018-12-06T12:03:32.481Z,3168.00
2018-12-06T12:04:32.461Z,3364.00
2018-12-06T12:05:32.491Z,2924.00
2018-12-06T12:06:32.435Z,2772.00
2018-12-06T12:07:32.423Z,2324.00
2018-12-06T12:08:32.507Z,2468.00
2018-12-06T12:09:32.407Z,2392.00
2018-12-06T12:10:32.423Z,2424.00
2018-12-06T12:11:32.427Z,2608.00
2018-12-06T12:12:32.370Z,2464.00
2018-12-06T12:13:32.358Z,2648.00
2018-12-06T12:14:32.367Z,2772.00
2018-12-06T12:15:32.343Z,2500.00
2018-12-06T12:16:32.329Z,2420.00
2018-12-06T12:17:32.341Z,2316.00
2018-12-06T12:18:32.304Z,2244.00
2018-12-06T12:19:32.319Z,2220.00
2018-12-06T12:20:32.285Z,2440.00
2018-12-06T12:21:32.286Z,2380.00
2018-12-06T12:22:32.267Z,2392.00
2018-12-06T12:23:32.270Z,2508.00
2018-12-06T12:24:32.245Z,2124.00
2018-12-06T12:25:32.219Z,2108.00
2018-12-06T12:26:32.230Z,2296.00
2018-12-06T12:27:32.232Z,2464.00
2018-12-06T12:28:32.207Z,2380.00
2018-12-06T12:29:32.179Z,2288.00
2018-12-06T12:30:32.176Z,2440.00
2018-12-06T12:31:41.787Z,3028.00
2018-12-06T12:32:32.457Z,3460.00
2018-12-06T12:33:41.579Z,3244.00
2018-12-06T12:34:40.836Z,2636.00
2018-12-06T12:35:32.350Z,2212.00
2018-12-06T12:36:32.122Z,1976.00
2018-12-06T12:37:32.094Z,1732.00
2018-12-06T12:38:32.152Z,2204.00
2018-12-06T12:39:32.178Z,2352.00
2018-12-06T12:40:32.112Z,2300.00
2018-12-06T12:41:32.121Z,2092.00
2018-12-06T12:42:32.033Z,2556.00
2018-12-06T12:43:32.871Z,2884.00
2018-12-06T12:44:32.101Z,2892.00
2018-12-06T12:45:32.095Z,2756.00
2018-12-06T12:46:32.051Z,2820.00
2018-12-06T12:47:31.977Z,2856.00
2018-12-06T12:48:32.083Z,2952.00
2018-12-06T12:49:32.022Z,2996.00
2018-12-06T12:50:31.979Z,3160.00
2018-12-06T12:51:31.927Z,3404.00
2018-12-06T12:52:31.916Z,3280.00
2018-12-06T12:53:31.923Z,3796.00
2018-12-06T12:54:31.934Z,4172.00
2018-12-06T12:55:31.942Z,4392.00
2018-12-06T12:56:31.881Z,4012.00
2018-12-06T12:57:31.868Z,3596.00
2018-12-06T12:58:31.855Z,4816.00
2018-12-06T12:59:31.841Z,5016.00
2018-12-06T13:00:31.845Z,5148.00
2018-12-06T13:01:31.852Z,5452.00
2018-12-06T13:02:31.808Z,6172.00
2018-12-06T13:03:31.868Z,5968.00
2018-12-06T13:04:31.786Z,5272.00
2018-12-06T13:05:31.788Z,5260.00
2018-12-06T13:06:31.784Z,5056.00
2018-12-06T13:07:31.770Z,5296.00
2018-12-06T13:08:31.745Z,5388.00
2018-12-06T13:09:32.493Z,5088.00
2018-12-06T13:10:31.783Z,5796.00
2018-12-06T13:11:31.722Z,5920.00
2018-12-06T13:12:32.514Z,7032.00
2018-12-06T13:13:31.687Z,6996.00
2018-12-06T13:14:31.785Z,7096.00
2018-12-06T13:15:31.670Z,6772.00
2018-12-06T13:16:31.699Z,5512.00
2018-12-06T13:17:31.646Z,4220.00
2018-12-06T13:18:31.635Z,3684.00
2018-12-06T13:19:31.647Z,3744.00
2018-12-06T13:20:31.696Z,4684.00
2018-12-06T13:21:31.616Z,5188.00
2018-12-06T13:22:31.606Z,4360.00
2018-12-06T13:23:31.598Z,3668.00
2018-12-06T13:24:31.563Z,4552.00
2018-12-06T13:25:31.551Z,4156.00
2018-12-06T13:26:31.552Z,4008.00
2018-12-06T13:27:31.569Z,4320.00
2018-12-06T13:28:31.643Z,5312.00
2018-12-06T13:29:31.706Z,5352.00
2018-12-06T13:30:31.504Z,5548.00
2018-12-06T13:31:31.489Z,5364.00
2018-12-06T13:32:31.599Z,6080.00
2018-12-06T13:33:31.489Z,6928.00
2018-12-06T13:34:31.473Z,7824.00
2018-12-06T13:35:31.445Z,7284.00
2018-12-06T13:36:31.443Z,6604.00
2018-12-06T13:37:31.420Z,6680.00
2018-12-06T13:38:31.443Z,7364.00
2018-12-06T13:39:31.404Z,7500.00
2018-12-06T13:40:31.387Z,6704.00
2018-12-06T13:41:31.390Z,6540.00
2018-12-06T13:42:31.361Z,6800.00
2018-12-06T13:43:31.349Z,6768.00
2018-12-06T13:44:31.358Z,6572.00
2018-12-06T13:45:31.333Z,6596.00